Time;durP1;ratioP1;P1;durP2;ratioP2;P2;SDS_P1;SDS_P2;PMS_P1;PMS_P2;Temp;Humidity;BMP_temperature;BMP_pressure;BME280_temperature;BME280_humidity;BME280_pressure;Samples;Min_cycle;Max_cycle;Signal;HPM_P1;HPM_P2
2023/02/24 00:00:29;;;;;;;11.95;7.93;;;;;;;;;;5074767;28;20411;-88
2023/02/24 00:02:49;;;;;;;12.18;8.07;;;;;;;;;;5074609;28;20388;-89
2023/02/24 00:05:15;;;;;;;13.38;7.90;;;;;;;;;;5074666;28;20429;-89
2023/02/24 00:07:41;;;;;;;11.80;8.33;;;;;;;;;;5056755;28;20908;-88
2023/02/24 00:10:08;;;;;;;11.52;7.78;;;;;;;;;;5074498;28;20888;-89
2023/02/24 00:12:34;;;;;;;11.18;7.65;;;;;;;;;;5056535;28;20880;-88
2023/02/24 00:15:00;;;;;;;11.02;6.68;;;;;;;;;;5074578;28;20963;-88
2023/02/24 00:17:29;;;;;;;12.70;7.18;;;;;;;;;;5056578;28;20399;-88
2023/02/24 00:19:55;;;;;;;10.98;7.00;;;;;;;;;;5074065;28;20387;-88
2023/02/24 00:22:21;;;;;;;10.32;6.47;;;;;;;;;;5056946;28;20387;-88
2023/02/24 00:24:47;;;;;;;12.57;7.25;;;;;;;;;;5074378;28;20380;-88
2023/02/24 00:27:13;;;;;;;9.13;6.30;;;;;;;;;;5056660;28;20395;-88
2023/02/24 00:29:40;;;;;;;9.43;6.85;;;;;;;;;;5074283;28;20380;-88
2023/02/24 00:32:11;;;;;;;8.77;6.03;;;;;;;;;;5074243;28;20376;-89
2023/02/24 00:34:37;;;;;;;13.60;6.67;;;;;;;;;;5074101;28;20407;-88
2023/02/24 00:37:07;;;;;;;9.43;6.32;;;;;;;;;;5056266;28;20386;-89
2023/02/24 00:39:34;;;;;;;11.02;6.00;;;;;;;;;;5074008;28;20376;-89
2023/02/24 00:42:04;;;;;;;10.50;6.32;;;;;;;;;;5056088;28;20861;-89
2023/02/24 00:44:34;;;;;;;7.70;5.53;;;;;;;;;;5074394;28;20445;-89
2023/02/24 00:47:03;;;;;;;10.50;6.15;;;;;;;;;;5056152;28;20876;-88
2023/02/24 00:49:30;;;;;;;9.53;5.87;;;;;;;;;;5073488;28;20404;-90
2023/02/24 00:51:57;;;;;;;8.55;6.05;;;;;;;;;;5070462;28;20451;-89
2023/02/24 00:54:26;;;;;;;12.27;6.30;;;;;;;;;;5063261;28;20413;-89
2023/02/24 00:56:53;;;;;;;8.98;6.13;;;;;;;;;;5073713;28;20380;-90
2023/02/24 00:59:20;;;;;;;8.45;5.93;;;;;;;;;;5073869;28;20902;-89
2023/02/24 01:01:48;;;;;;;8.73;5.78;;;;;;;;;;5073219;28;20387;-89
2023/02/24 01:04:14;;;;;;;9.40;6.10;;;;;;;;;;5073600;28;20381;-90
2023/02/24 01:06:48;;;;;;;10.80;6.13;;;;;;;;;;5066778;28;20404;-89
2023/02/24 01:09:15;;;;;;;7.97;5.97;;;;;;;;;;5067102;28;20879;-88
2023/02/24 01:12:37;;;;;;;10.20;6.30;;;;;;;;;;5061966;28;20377;-88
2023/02/24 01:14:47;;;;;;;9.30;6.10;;;;;;;;;;5056091;28;20416;-90
2023/02/24 01:17:14;;;;;;;9.50;6.10;;;;;;;;;;5073296;28;20433;-88
2023/02/24 01:19:41;;;;;;;8.55;5.80;;;;;;;;;;5073216;28;20439;-89
2023/02/24 01:22:09;;;;;;;8.45;5.70;;;;;;;;;;5073307;28;20403;-88
2023/02/24 01:24:36;;;;;;;9.70;6.10;;;;;;;;;;5073239;28;20426;-88
2023/02/24 01:27:02;;;;;;;10.85;5.88;;;;;;;;;;5069411;28;20407;-89
2023/02/24 01:29:28;;;;;;;10.32;6.05;;;;;;;;;;5065238;28;20414;-89
2023/02/24 01:32:01;;;;;;;8.25;5.78;;;;;;;;;;5055380;28;20408;-88
2023/02/24 01:34:28;;;;;;;10.65;5.85;;;;;;;;;;5073067;28;20872;-90
2023/02/24 01:36:54;;;;;;;10.15;5.90;;;;;;;;;;5073094;28;20384;-88
2023/02/24 01:39:20;;;;;;;10.27;6.00;;;;;;;;;;5072878;28;20383;-89
2023/02/24 01:41:48;;;;;;;9.67;5.70;;;;;;;;;;5072073;28;20372;-88
2023/02/24 01:44:16;;;;;;;9.15;5.97;;;;;;;;;;5071345;28;20888;-88
2023/02/24 01:46:43;;;;;;;9.38;6.13;;;;;;;;;;5072433;28;20853;-87
2023/02/24 01:49:12;;;;;;;10.18;5.95;;;;;;;;;;5071653;28;20380;-88
2023/02/24 01:51:48;;;;;;;9.50;5.60;;;;;;;;;;5071365;28;20395;-87
2023/02/24 01:54:15;;;;;;;7.53;5.65;;;;;;;;;;5070586;28;20380;-89
2023/02/24 01:56:42;;;;;;;7.20;4.97;;;;;;;;;;5070728;28;20406;-88
2023/02/24 01:59:08;;;;;;;11.38;5.95;;;;;;;;;;5069238;28;20368;-87
2023/02/24 02:01:39;;;;;;;7.35;5.60;;;;;;;;;;5050578;28;20727;-87
2023/02/24 02:04:11;;;;;;;8.40;5.82;;;;;;;;;;5071542;28;20391;-88
2023/02/24 02:06:38;;;;;;;9.82;5.72;;;;;;;;;;5071327;28;20469;-88
2023/02/24 02:09:06;;;;;;;8.07;5.40;;;;;;;;;;5072291;28;20376;-87
2023/02/24 02:11:33;;;;;;;8.07;5.50;;;;;;;;;;5071669;28;20380;-88
2023/02/24 02:13:59;;;;;;;7.95;5.63;;;;;;;;;;5047600;28;20896;-89
2023/02/24 02:16:48;;;;;;;7.07;5.30;;;;;;;;;;5064923;28;20437;-87
2023/02/24 02:19:14;;;;;;;7.72;5.95;;;;;;;;;;5059275;28;20380;-88
2023/02/24 02:21:48;;;;;;;9.25;5.57;;;;;;;;;;5072072;28;20877;-87
2023/02/24 02:24:23;;;;;;;9.10;5.45;;;;;;;;;;5072003;28;20375;-89
2023/02/24 02:27:10;;;;;;;8.77;5.40;;;;;;;;;;5072037;28;20376;-88
2023/02/24 02:29:36;;;;;;;11.40;5.70;;;;;;;;;;5071576;28;20386;-87
2023/02/24 02:32:21;;;;;;;7.63;5.43;;;;;;;;;;5071851;28;20379;-89
2023/02/24 02:34:56;;;;;;;9.40;6.13;;;;;;;;;;5071732;28;20403;-89
2023/02/24 02:37:37;;;;;;;9.77;5.60;;;;;;;;;;5071850;28;20380;-89
2023/02/24 02:40:18;;;;;;;10.75;5.50;;;;;;;;;;5071606;28;20375;-89
2023/02/24 02:42:47;;;;;;;7.30;5.38;;;;;;;;;;5071763;28;20367;-88
2023/02/24 02:45:24;;;;;;;7.00;5.30;;;;;;;;;;5060827;28;20435;-87
2023/02/24 02:47:52;;;;;;;8.85;5.90;;;;;;;;;;5069924;28;20382;-88
2023/02/24 02:50:18;;;;;;;8.43;5.55;;;;;;;;;;5071514;28;20399;-89
2023/02/24 02:52:56;;;;;;;9.27;6.07;;;;;;;;;;5071734;28;20382;-87
2023/02/24 02:55:37;;;;;;;8.38;5.75;;;;;;;;;;5054028;28;20892;-88
2023/02/24 02:58:08;;;;;;;8.20;5.20;;;;;;;;;;5067747;28;20400;-87
2023/02/24 03:00:36;;;;;;;7.35;5.07;;;;;;;;;;5079867;28;20380;-88
2023/02/24 03:03:11;;;;;;;7.37;5.37;;;;;;;;;;5091307;28;20398;-89
2023/02/24 03:05:47;;;;;;;8.57;6.13;;;;;;;;;;5086070;28;20387;-89
2023/02/24 03:08:20;;;;;;;9.40;5.15;;;;;;;;;;5076678;28;20384;-88
2023/02/24 03:10:49;;;;;;;8.27;5.40;;;;;;;;;;5063970;28;20388;-87
2023/02/24 03:13:18;;;;;;;8.82;5.32;;;;;;;;;;5074962;28;20394;-88
2023/02/24 03:15:46;;;;;;;7.85;5.32;;;;;;;;;;5073007;28;20407;-89
2023/02/24 03:18:17;;;;;;;8.63;5.07;;;;;;;;;;5072459;28;20410;-90
2023/02/24 03:20:52;;;;;;;8.07;5.00;;;;;;;;;;5071015;28;21108;-88
2023/02/24 03:23:24;;;;;;;7.55;4.80;;;;;;;;;;5040644;28;20754;-90
2023/02/24 03:25:58;;;;;;;6.45;5.25;;;;;;;;;;5070722;28;20383;-88
2023/02/24 03:28:36;;;;;;;7.93;5.40;;;;;;;;;;5071404;28;20380;-88
2023/02/24 03:31:06;;;;;;;6.97;4.93;;;;;;;;;;5071111;28;20375;-88
2023/02/24 03:33:39;;;;;;;6.78;5.40;;;;;;;;;;5071358;28;20432;-88
2023/02/24 03:36:06;;;;;;;7.97;5.50;;;;;;;;;;5071156;28;20403;-89
2023/02/24 03:38:33;;;;;;;7.07;5.32;;;;;;;;;;5070938;28;20372;-89
2023/02/24 03:40:59;;;;;;;8.95;5.53;;;;;;;;;;5070889;28;20440;-89
2023/02/24 03:43:35;;;;;;;9.07;5.10;;;;;;;;;;5070885;28;20428;-90
2023/02/24 03:46:04;;;;;;;8.40;5.28;;;;;;;;;;5070656;28;20376;-88
2023/02/24 03:48:31;;;;;;;7.38;5.78;;;;;;;;;;5071019;28;20900;-89
2023/02/24 03:50:58;;;;;;;5.63;4.95;;;;;;;;;;5070867;28;20388;-89
2023/02/24 03:53:54;;;;;;;7.72;4.90;;;;;;;;;;5066493;28;20381;-90
2023/02/24 03:56:29;;;;;;;6.40;4.88;;;;;;;;;;5070815;28;20408;-88
2023/02/24 03:59:08;;;;;;;10.40;5.57;;;;;;;;;;5070835;28;20459;-88
2023/02/24 04:01:40;;;;;;;8.05;5.20;;;;;;;;;;5070783;28;20378;-90
2023/02/24 04:04:12;;;;;;;9.00;5.20;;;;;;;;;;5063149;28;20447;-89
2023/02/24 04:06:48;;;;;;;8.68;6.50;;;;;;;;;;5070788;28;20387;-86
2023/02/24 04:09:20;;;;;;;8.93;5.27;;;;;;;;;;5070809;28;20380;-89
2023/02/24 04:11:49;;;;;;;7.97;6.22;;;;;;;;;;5052717;28;20891;-89
2023/02/24 04:14:27;;;;;;;9.95;5.32;;;;;;;;;;5070766;28;20479;-88
2023/02/24 04:17:04;;;;;;;6.93;5.47;;;;;;;;;;5056488;28;20416;-89
2023/02/24 04:19:32;;;;;;;7.63;5.25;;;;;;;;;;5070625;28;20475;-88
2023/02/24 04:21:59;;;;;;;6.93;5.33;;;;;;;;;;5070679;28;20917;-89
2023/02/24 04:24:27;;;;;;;8.07;5.00;;;;;;;;;;5070497;28;20376;-90
2023/02/24 04:27:00;;;;;;;6.75;5.28;;;;;;;;;;5070120;28;20437;-89
2023/02/24 04:29:34;;;;;;;8.88;5.57;;;;;;;;;;5070546;28;20380;-89
2023/02/24 04:32:02;;;;;;;6.57;5.13;;;;;;;;;;5070587;28;20376;-89
2023/02/24 04:34:31;;;;;;;8.38;5.50;;;;;;;;;;5070494;28;20372;-88
2023/02/24 04:36:58;;;;;;;9.07;5.27;;;;;;;;;;5073689;28;20379;-89
2023/02/24 04:39:24;;;;;;;6.63;5.03;;;;;;;;;;5074034;28;20891;-89
2023/02/24 04:41:51;;;;;;;9.05;5.25;;;;;;;;;;5056043;28;20463;-89
2023/02/24 04:44:18;;;;;;;6.70;5.00;;;;;;;;;;5073979;28;20383;-89
2023/02/24 04:46:44;;;;;;;5.95;5.15;;;;;;;;;;5074078;28;20391;-89
2023/02/24 04:49:11;;;;;;;7.15;5.28;;;;;;;;;;5073853;28;20437;-89
2023/02/24 04:51:41;;;;;;;9.82;5.40;;;;;;;;;;5073638;28;20449;-89
2023/02/24 04:54:07;;;;;;;6.00;5.10;;;;;;;;;;5073809;28;20388;-89
2023/02/24 04:56:34;;;;;;;10.07;5.35;;;;;;;;;;5056096;28;20404;-88
2023/02/24 04:59:01;;;;;;;8.57;5.13;;;;;;;;;;5073681;28;20379;-90
2023/02/24 05:01:28;;;;;;;6.93;5.10;;;;;;;;;;5072909;28;20444;-89
2023/02/24 05:03:54;;;;;;;8.47;5.33;;;;;;;;;;5062722;28;20468;-90
2023/02/24 05:06:20;;;;;;;6.60;4.90;;;;;;;;;;5035576;28;20870;-88
2023/02/24 05:08:46;;;;;;;9.00;5.80;;;;;;;;;;5053607;28;20392;-90
2023/02/24 05:11:17;;;;;;;7.88;5.03;;;;;;;;;;5062257;28;20395;-89
2023/02/24 05:13:44;;;;;;;8.85;5.60;;;;;;;;;;5073533;28;20382;-87
2023/02/24 05:16:12;;;;;;;12.00;5.57;;;;;;;;;;5069688;28;20404;-90
2023/02/24 05:18:39;;;;;;;10.30;5.45;;;;;;;;;;5069508;28;20395;-90
2023/02/24 05:23:54;;;;;;;8.32;5.47;;;;;;;;;;5069128;28;20367;-90
2023/02/24 05:26:23;;;;;;;7.07;5.00;;;;;;;;;;5071234;28;20897;-89
2023/02/24 05:28:51;;;;;;;8.15;5.13;;;;;;;;;;5057153;28;20387;-89
2023/02/24 05:31:27;;;;;;;8.20;5.18;;;;;;;;;;5063204;28;20415;-89
2023/02/24 05:33:57;;;;;;;7.55;5.15;;;;;;;;;;5057365;28;20381;-91
2023/02/24 05:36:24;;;;;;;10.13;5.50;;;;;;;;;;5060617;28;20413;-89
2023/02/24 05:38:56;;;;;;;7.77;4.97;;;;;;;;;;5058374;28;20381;-90
2023/02/24 05:41:23;;;;;;;6.38;5.00;;;;;;;;;;5056752;28;20504;-90
2023/02/24 05:43:53;;;;;;;7.43;5.22;;;;;;;;;;5066018;28;20387;-90
2023/02/24 05:46:26;;;;;;;8.45;4.82;;;;;;;;;;5064790;28;20445;-89
2023/02/24 05:48:55;;;;;;;7.57;4.90;;;;;;;;;;5072165;28;20379;-88
2023/02/24 05:51:23;;;;;;;8.18;5.30;;;;;;;;;;5072455;28;20487;-89
2023/02/24 05:53:50;;;;;;;6.33;4.70;;;;;;;;;;5072695;28;20376;-90
2023/02/24 05:56:18;;;;;;;6.82;5.03;;;;;;;;;;5072475;28;20494;-89
2023/02/24 05:58:44;;;;;;;7.25;5.10;;;;;;;;;;5069837;28;20399;-88
2023/02/24 06:01:14;;;;;;;7.20;5.00;;;;;;;;;;5065912;28;20848;-90
2023/02/24 06:03:45;;;;;;;6.57;5.10;;;;;;;;;;5063965;28;20381;-87
2023/02/24 06:06:11;;;;;;;7.82;5.00;;;;;;;;;;5057537;28;20393;-88
2023/02/24 06:09:00;;;;;;;7.60;5.00;;;;;;;;;;5047941;28;20440;-88
2023/02/24 06:11:23;;;;;;;9.32;5.72;;;;;;;;;;5065782;28;20391;-88
2023/02/24 06:13:49;;;;;;;5.93;4.97;;;;;;;;;;5052597;28;20382;-86
2023/02/24 06:16:16;;;;;;;8.20;5.82;;;;;;;;;;5064239;28;20881;-88
2023/02/24 06:18:43;;;;;;;7.38;5.80;;;;;;;;;;5059672;28;20382;-88
2023/02/24 06:21:12;;;;;;;8.60;5.95;;;;;;;;;;5062291;28;20403;-88
2023/02/24 06:23:41;;;;;;;7.38;5.80;;;;;;;;;;5072133;28;20391;-87
2023/02/24 06:26:11;;;;;;;6.45;5.55;;;;;;;;;;5054097;28;20753;-89
2023/02/24 06:28:39;;;;;;;7.35;5.57;;;;;;;;;;5068656;28;20927;-88
2023/02/24 06:31:05;;;;;;;7.43;4.97;;;;;;;;;;5072113;28;20383;-89
2023/02/24 06:33:32;;;;;;;11.75;5.43;;;;;;;;;;5060082;28;20383;-88
2023/02/24 06:35:59;;;;;;;11.37;5.13;;;;;;;;;;5061143;28;20436;-87
2023/02/24 06:38:25;;;;;;;7.43;4.97;;;;;;;;;;5082251;28;20401;-88
2023/02/24 06:40:56;;;;;;;7.23;5.30;;;;;;;;;;5088837;28;20378;-87
2023/02/24 06:43:22;;;;;;;8.27;5.23;;;;;;;;;;5094058;28;20356;-88
2023/02/24 06:45:49;;;;;;;7.18;5.00;;;;;;;;;;5093810;28;20439;-85
2023/02/24 06:48:14;;;;;;;6.88;5.10;;;;;;;;;;5059767;28;20753;-88
2023/02/24 06:50:40;;;;;;;7.97;5.40;;;;;;;;;;5076592;28;20453;-91
2023/02/24 06:53:15;;;;;;;10.03;5.60;;;;;;;;;;5073715;28;20398;-88
2023/02/24 06:55:42;;;;;;;7.47;5.13;;;;;;;;;;5075514;28;20449;-89
2023/02/24 06:58:15;;;;;;;6.28;4.80;;;;;;;;;;5058871;28;20416;-87
2023/02/24 07:00:44;;;;;;;5.78;4.93;;;;;;;;;;5066163;28;20434;-87
2023/02/24 07:03:14;;;;;;;6.70;4.88;;;;;;;;;;5072291;28;20383;-90
2023/02/24 07:05:41;;;;;;;5.75;4.80;;;;;;;;;;5071802;28;20376;-86
2023/02/24 07:08:07;;;;;;;6.65;4.97;;;;;;;;;;5062725;28;20428;-87
2023/02/24 07:10:33;;;;;;;6.63;4.90;;;;;;;;;;5060411;28;20809;-89
2023/02/24 07:12:59;;;;;;;7.97;4.60;;;;;;;;;;5071469;28;20467;-88
2023/02/24 07:15:30;;;;;;;7.50;5.10;;;;;;;;;;5059410;28;20405;-87
2023/02/24 07:17:56;;;;;;;5.20;4.70;;;;;;;;;;5064472;28;20406;-88
2023/02/24 07:20:24;;;;;;;6.30;5.00;;;;;;;;;;5071220;28;20386;-87
2023/02/24 07:22:51;;;;;;;7.70;4.95;;;;;;;;;;5068039;28;20737;-87
2023/02/24 07:25:32;;;;;;;6.13;4.97;;;;;;;;;;5071138;28;20787;-87
2023/02/24 07:28:01;;;;;;;9.13;6.97;;;;;;;;;;5067543;28;20387;-86
2023/02/24 07:30:33;;;;;;;10.25;5.50;;;;;;;;;;5071032;28;20384;-86
2023/02/24 07:32:59;;;;;;;5.75;4.80;;;;;;;;;;5071012;28;20935;-86
2023/02/24 07:35:25;;;;;;;6.40;5.18;;;;;;;;;;5067749;28;20411;-86
2023/02/24 07:37:51;;;;;;;8.40;5.30;;;;;;;;;;5051361;28;20377;-86
2023/02/24 07:40:20;;;;;;;9.57;5.30;;;;;;;;;;5055725;28;20392;-85
2023/02/24 07:42:47;;;;;;;7.20;5.57;;;;;;;;;;5071260;28;20383;-87
2023/02/24 07:45:13;;;;;;;8.73;5.68;;;;;;;;;;5071405;28;20486;-86
2023/02/24 07:47:43;;;;;;;6.75;5.90;;;;;;;;;;5071038;28;20428;-87
2023/02/24 07:50:13;;;;;;;8.48;6.00;;;;;;;;;;5052851;28;20448;-89
2023/02/24 07:52:39;;;;;;;12.02;8.93;;;;;;;;;;5071099;28;20387;-86
2023/02/24 07:55:07;;;;;;;15.75;10.73;;;;;;;;;;5071055;28;20415;-85
2023/02/24 07:57:36;;;;;;;11.38;7.63;;;;;;;;;;5052812;28;20376;-86
2023/02/24 08:00:15;;;;;;;9.88;7.43;;;;;;;;;;5064135;28;20405;-86
2023/02/24 08:02:41;;;;;;;10.98;7.32;;;;;;;;;;5067525;28;20917;-85
2023/02/24 08:05:08;;;;;;;9.93;7.55;;;;;;;;;;5067114;28;20411;-84
2023/02/24 08:07:34;;;;;;;11.93;6.65;;;;;;;;;;5064906;28;20411;-83
2023/02/24 08:10:12;;;;;;;9.10;6.33;;;;;;;;;;5052908;28;20447;-84
2023/02/24 08:12:41;;;;;;;8.00;6.32;;;;;;;;;;5057331;28;20433;-85
2023/02/24 08:15:15;;;;;;;8.00;6.30;;;;;;;;;;5074252;28;20407;-85
2023/02/24 08:17:42;;;;;;;8.32;6.20;;;;;;;;;;5074630;28;20383;-85
2023/02/24 08:22:42;;;;;;;6.38;5.50;;;;;;;;;;5074711;28;20384;-84
2023/02/24 08:25:09;;;;;;;6.63;5.35;;;;;;;;;;5070658;28;20383;-83
2023/02/24 08:27:41;;;;;;;6.82;6.00;;;;;;;;;;5074295;28;20860;-85
2023/02/24 08:30:08;;;;;;;11.05;6.65;;;;;;;;;;5074128;28;20441;-85
2023/02/24 08:32:42;;;;;;;10.13;6.75;;;;;;;;;;5074438;28;20383;-84
2023/02/24 08:35:13;;;;;;;8.50;6.33;;;;;;;;;;5074138;28;20426;-84
2023/02/24 08:37:45;;;;;;;8.80;6.30;;;;;;;;;;5074191;28;20721;-85
2023/02/24 08:40:36;;;;;;;9.85;7.03;;;;;;;;;;5073906;28;20747;-84
2023/02/24 08:42:59;;;;;;;7.88;6.45;;;;;;;;;;5067863;28;20380;-84
2023/02/24 08:45:27;;;;;;;9.60;6.60;;;;;;;;;;5073967;28;20395;-83
2023/02/24 08:47:59;;;;;;;8.88;6.68;;;;;;;;;;5062585;28;20428;-84
2023/02/24 08:50:29;;;;;;;9.00;6.00;;;;;;;;;;5073684;28;20399;-83
2023/02/24 08:52:56;;;;;;;9.13;6.80;;;;;;;;;;5073961;28;20380;-83
2023/02/24 08:55:29;;;;;;;11.20;7.43;;;;;;;;;;5065076;28;20418;-84
2023/02/24 08:57:55;;;;;;;13.95;7.90;;;;;;;;;;5069433;28;20376;-84
2023/02/24 09:00:47;;;;;;;11.48;7.60;;;;;;;;;;5073613;28;20372;-84
2023/02/24 09:03:07;;;;;;;12.10;10.23;;;;;;;;;;5060705;28;20394;-85
2023/02/24 09:05:37;;;;;;;11.20;9.70;;;;;;;;;;5073235;28;20399;-85
2023/02/24 09:08:03;;;;;;;10.30;7.97;;;;;;;;;;5073678;28;20426;-83
2023/02/24 09:10:29;;;;;;;14.38;8.80;;;;;;;;;;5055794;28;20430;-83
2023/02/24 09:12:55;;;;;;;11.40;9.52;;;;;;;;;;5073613;28;20845;-83
2023/02/24 09:15:24;;;;;;;11.45;9.73;;;;;;;;;;5051910;28;20408;-83
2023/02/24 09:18:00;;;;;;;9.82;8.68;;;;;;;;;;5073342;28;20375;-83
2023/02/24 09:22:56;;;;;;;13.98;10.65;;;;;;;;;;5073364;28;20441;-83
2023/02/24 09:25:24;;;;;;;23.77;12.57;;;;;;;;;;5073360;28;20448;-83
2023/02/24 09:28:06;;;;;;;18.30;11.90;;;;;;;;;;5073205;28;20856;-85
2023/02/24 09:30:37;;;;;;;20.10;13.55;;;;;;;;;;5069919;28;20852;-85
2023/02/24 09:33:06;;;;;;;22.80;15.70;;;;;;;;;;5073136;28;20380;-83
2023/02/24 09:35:35;;;;;;;28.33;18.77;;;;;;;;;;5072960;28;20411;-82
2023/02/24 09:38:04;;;;;;;23.88;16.55;;;;;;;;;;5072951;28;20891;-85
2023/02/24 09:40:38;;;;;;;25.02;15.57;;;;;;;;;;5063415;28;20382;-85
2023/02/24 09:43:09;;;;;;;24.60;15.15;;;;;;;;;;5052944;28;20400;-85
2023/02/24 09:45:38;;;;;;;25.10;15.48;;;;;;;;;;5053013;28;20385;-85
2023/02/24 09:48:15;;;;;;;25.23;17.83;;;;;;;;;;5056147;28;20392;-82
2023/02/24 09:50:59;;;;;;;20.67;14.73;;;;;;;;;;5054477;28;20385;-82
2023/02/24 09:53:37;;;;;;;28.63;16.55;;;;;;;;;;5054843;28;20369;-85
2023/02/24 09:56:07;;;;;;;24.95;17.35;;;;;;;;;;5053106;28;20405;-85
2023/02/24 09:58:36;;;;;;;42.80;28.98;;;;;;;;;;5052572;28;20878;-85
2023/02/24 10:01:29;;;;;;;19.77;15.20;;;;;;;;;;5052557;28;20431;-84
2023/02/24 10:04:17;;;;;;;18.52;14.38;;;;;;;;;;5045030;28;20392;-85
2023/02/24 10:06:47;;;;;;;17.65;13.85;;;;;;;;;;5054631;28;20834;-85
2023/02/24 10:09:26;;;;;;;21.70;14.38;;;;;;;;;;5072472;28;20388;-85
2023/02/24 10:12:03;;;;;;;23.00;14.60;;;;;;;;;;5072403;28;20868;-85
2023/02/24 10:14:29;;;;;;;23.08;15.82;;;;;;;;;;5072497;28;20458;-83
2023/02/24 10:19:40;;;;;;;22.43;15.17;;;;;;;;;;5077498;28;20725;-83
2023/02/24 10:22:26;;;;;;;27.33;16.05;;;;;;;;;;5078980;28;20376;-84
2023/02/24 10:25:00;;;;;;;48.65;29.27;;;;;;;;;;5082168;28;20387;-84
2023/02/24 10:27:39;;;;;;;20.08;15.43;;;;;;;;;;5077254;28;20555;-82
2023/02/24 10:30:18;;;;;;;19.73;15.25;;;;;;;;;;5073274;28;20379;-83
2023/02/24 10:32:57;;;;;;;20.08;15.48;;;;;;;;;;5071188;28;20376;-84
2023/02/24 10:35:24;;;;;;;21.20;16.40;;;;;;;;;;5072354;28;20758;-87
2023/02/24 10:37:51;;;;;;;20.73;15.38;;;;;;;;;;5054195;28;20391;-89
2023/02/24 10:40:25;;;;;;;23.88;15.35;;;;;;;;;;5072117;28;20481;-86
2023/02/24 10:43:02;;;;;;;23.27;16.67;;;;;;;;;;5072109;28;20475;-85
2023/02/24 10:45:30;;;;;;;18.30;15.73;;;;;;;;;;5072098;28;20399;-84
2023/02/24 10:47:57;;;;;;;21.58;16.50;;;;;;;;;;5071941;28;20453;-84
2023/02/24 10:50:27;;;;;;;20.67;16.35;;;;;;;;;;5071579;28;20384;-84
2023/02/24 10:58:43;;;;;;;30.65;20.90;;;;;;;;;;5070720;28;20385;-84
2023/02/24 11:01:19;;;;;;;28.38;19.17;;;;;;;;;;5067429;28;20853;-84
2023/02/24 11:04:11;;;;;;;19.93;17.83;;;;;;;;;;5071840;28;20383;-84
2023/02/24 11:06:51;;;;;;;22.23;17.30;;;;;;;;;;5071685;28;20379;-84
2023/02/24 11:09:31;;;;;;;23.02;16.17;;;;;;;;;;5063223;28;20404;-88
2023/02/24 11:17:52;;;;;;;21.83;16.80;;;;;;;;;;5059130;28;20451;-91
2023/02/24 11:20:23;;;;;;;21.50;16.95;;;;;;;;;;5071525;28;20388;-89
2023/02/24 11:22:51;;;;;;;20.02;16.08;;;;;;;;;;5072026;28;20756;-89
2023/02/24 11:25:17;;;;;;;21.88;16.73;;;;;;;;;;5071719;28;20388;-90
2023/02/24 11:27:45;;;;;;;22.30;17.27;;;;;;;;;;5054108;28;20388;-92
2023/02/24 11:30:17;;;;;;;24.67;17.13;;;;;;;;;;5053758;28;20387;-89
2023/02/24 11:33:01;;;;;;;21.67;16.08;;;;;;;;;;5068443;28;20865;-88
2023/02/24 11:35:33;;;;;;;21.83;16.08;;;;;;;;;;5054067;28;20404;-91
2023/02/24 11:37:59;;;;;;;21.27;16.05;;;;;;;;;;5071337;28;20383;-91
2023/02/24 11:40:26;;;;;;;26.42;18.88;;;;;;;;;;5071905;28;20383;-91
2023/02/24 11:43:02;;;;;;;21.02;15.85;;;;;;;;;;5071345;28;20437;-92
2023/02/24 11:45:33;;;;;;;24.17;16.42;;;;;;;;;;5045420;28;20381;-89
2023/02/24 11:48:03;;;;;;;25.50;16.03;;;;;;;;;;5037481;28;20893;-91
2023/02/24 11:50:38;;;;;;;28.70;16.80;;;;;;;;;;5042259;28;20407;-92
2023/02/24 11:53:07;;;;;;;18.30;14.05;;;;;;;;;;5075205;28;20391;-93
2023/02/24 11:55:41;;;;;;;18.35;13.82;;;;;;;;;;5057653;28;20395;-93
2023/02/24 11:58:13;;;;;;;19.05;13.68;;;;;;;;;;5075426;28;20380;-91
2023/02/24 12:00:42;;;;;;;18.55;13.63;;;;;;;;;;5072376;28;20364;-89
2023/02/24 12:03:24;;;;;;;18.88;12.63;;;;;;;;;;5062917;28;20474;-91
2023/02/24 12:05:53;;;;;;;18.25;12.75;;;;;;;;;;5060141;28;20379;-90
2023/02/24 12:08:27;;;;;;;17.75;12.63;;;;;;;;;;5067262;28;20387;-88
2023/02/24 12:10:58;;;;;;;21.38;12.18;;;;;;;;;;5060829;28;20509;-88
2023/02/24 12:13:31;;;;;;;17.70;12.40;;;;;;;;;;5057205;28;20378;-89
2023/02/24 12:16:06;;;;;;;17.77;12.15;;;;;;;;;;5058849;28;20404;-89
2023/02/24 12:18:33;;;;;;;18.63;11.73;;;;;;;;;;5066278;28;20375;-88
2023/02/24 12:21:04;;;;;;;17.27;12.05;;;;;;;;;;5061886;28;20392;-89
2023/02/24 12:23:30;;;;;;;19.20;11.82;;;;;;;;;;5061798;28;20405;-88
2023/02/24 12:26:14;;;;;;;15.52;11.95;;;;;;;;;;5062940;28;20386;-88
2023/02/24 12:28:50;;;;;;;17.23;12.25;;;;;;;;;;5064740;28;20371;-90
2023/02/24 12:31:30;;;;;;;16.98;12.02;;;;;;;;;;5059286;28;20726;-89
2023/02/24 12:34:16;;;;;;;18.23;11.80;;;;;;;;;;5058247;28;20369;-89
2023/02/24 12:36:52;;;;;;;18.58;11.77;;;;;;;;;;5057527;28;20412;-90
2023/02/24 12:39:28;;;;;;;16.23;10.30;;;;;;;;;;5066455;28;20423;-89
2023/02/24 12:41:54;;;;;;;17.08;10.98;;;;;;;;;;5056967;28;20912;-89
2023/02/24 12:44:28;;;;;;;16.75;10.45;;;;;;;;;;5058449;28;20403;-88
2023/02/24 12:47:06;;;;;;;15.15;9.27;;;;;;;;;;5058712;28;20382;-89
2023/02/24 12:50:05;;;;;;;15.23;9.35;;;;;;;;;;5064389;28;20385;-88
2023/02/24 12:52:42;;;;;;;16.52;8.80;;;;;;;;;;5025912;28;20485;-88
2023/02/24 12:55:15;;;;;;;18.02;8.68;;;;;;;;;;5051258;28;20417;-89
2023/02/24 12:57:51;;;;;;;16.17;8.43;;;;;;;;;;5059494;28;20384;-88
2023/02/24 13:00:23;;;;;;;15.35;8.35;;;;;;;;;;5064279;28;20412;-86
2023/02/24 13:03:10;;;;;;;13.70;8.30;;;;;;;;;;5046563;28;20504;-88
2023/02/24 13:05:45;;;;;;;17.65;8.57;;;;;;;;;;5058851;28;20383;-89
2023/02/24 13:08:11;;;;;;;17.38;8.10;;;;;;;;;;5063736;28;20389;-88
2023/02/24 13:10:37;;;;;;;18.60;8.25;;;;;;;;;;5061477;28;20384;-89
2023/02/24 13:13:09;;;;;;;16.23;7.90;;;;;;;;;;5058005;28;20394;-89
2023/02/24 13:15:35;;;;;;;18.10;7.50;;;;;;;;;;5060758;28;20490;-88
2023/02/24 13:18:01;;;;;;;16.80;7.93;;;;;;;;;;5055521;28;20531;-88
2023/02/24 13:20:33;;;;;;;13.87;7.90;;;;;;;;;;5073238;28;20387;-88
2023/02/24 13:22:59;;;;;;;15.20;7.78;;;;;;;;;;5073474;28;20386;-88
2023/02/24 13:25:51;;;;;;;15.07;7.70;;;;;;;;;;5072916;28;20388;-89
2023/02/24 13:28:37;;;;;;;11.85;7.25;;;;;;;;;;5050283;28;20879;-88
2023/02/24 13:31:08;;;;;;;14.20;7.95;;;;;;;;;;5071708;28;20441;-89
2023/02/24 13:33:35;;;;;;;15.20;7.05;;;;;;;;;;5053440;28;20803;-89
2023/02/24 13:36:09;;;;;;;14.00;6.80;;;;;;;;;;5063544;28;20888;-90
2023/02/24 13:38:37;;;;;;;17.83;7.22;;;;;;;;;;5072787;28;20387;-88
2023/02/24 13:41:29;;;;;;;14.85;6.65;;;;;;;;;;5072696;28;20380;-88
2023/02/24 13:44:00;;;;;;;19.85;7.82;;;;;;;;;;5068663;28;20384;-88
2023/02/24 13:46:33;;;;;;;15.80;6.82;;;;;;;;;;5072880;28;20406;-88
2023/02/24 13:49:06;;;;;;;20.42;7.20;;;;;;;;;;5073014;28;20371;-87
2023/02/24 13:51:52;;;;;;;18.85;7.28;;;;;;;;;;5063999;28;20472;-88
2023/02/24 13:54:26;;;;;;;16.33;6.75;;;;;;;;;;5073525;28;20379;-89
2023/02/24 13:56:58;;;;;;;18.40;7.35;;;;;;;;;;5069326;28;20442;-88
2023/02/24 13:59:34;;;;;;;12.98;6.60;;;;;;;;;;5084558;28;20372;-88
2023/02/24 14:02:02;;;;;;;19.67;7.33;;;;;;;;;;5087106;28;20368;-88
2023/02/24 14:04:33;;;;;;;21.05;7.13;;;;;;;;;;5080369;28;20377;-88
2023/02/24 14:07:00;;;;;;;14.48;6.65;;;;;;;;;;5091628;28;20386;-89
2023/02/24 14:09:36;;;;;;;16.48;6.95;;;;;;;;;;5077597;28;20419;-89
2023/02/24 14:12:23;;;;;;;19.38;7.82;;;;;;;;;;5078229;28;20423;-89
2023/02/24 14:14:49;;;;;;;23.27;7.88;;;;;;;;;;5062340;28;21040;-89
2023/02/24 14:17:27;;;;;;;19.85;7.60;;;;;;;;;;5067231;28;20429;-89
2023/02/24 14:19:53;;;;;;;17.90;7.00;;;;;;;;;;5063379;28;20375;-89
2023/02/24 14:22:20;;;;;;;18.85;7.50;;;;;;;;;;5054776;28;20894;-88
2023/02/24 14:24:46;;;;;;;13.82;6.65;;;;;;;;;;5049422;28;20989;-89
2023/02/24 14:27:20;;;;;;;15.48;7.50;;;;;;;;;;5070434;28;20428;-88
2023/02/24 14:29:46;;;;;;;14.75;7.13;;;;;;;;;;5072521;28;20382;-89
2023/02/24 14:32:19;;;;;;;15.55;7.10;;;;;;;;;;5072498;28;20395;-89
2023/02/24 14:34:46;;;;;;;20.77;7.28;;;;;;;;;;5072233;28;20372;-89
2023/02/24 14:37:16;;;;;;;16.17;6.70;;;;;;;;;;5072293;28;20388;-91
2023/02/24 14:39:48;;;;;;;13.17;6.17;;;;;;;;;;5070706;28;20414;-92
2023/02/24 14:42:14;;;;;;;17.90;6.65;;;;;;;;;;5054492;28;20447;-91
2023/02/24 14:44:45;;;;;;;14.57;6.22;;;;;;;;;;5054096;28;20479;-91
2023/02/24 14:47:15;;;;;;;16.52;6.00;;;;;;;;;;5069976;28;20376;-91
2023/02/24 14:49:42;;;;;;;15.75;5.25;;;;;;;;;;5072367;28;20406;-92
2023/02/24 14:52:10;;;;;;;15.75;5.35;;;;;;;;;;5072210;28;20483;-88
2023/02/24 14:54:48;;;;;;;20.45;5.35;;;;;;;;;;5054227;28;20877;-90
2023/02/24 14:57:17;;;;;;;16.80;5.50;;;;;;;;;;5046984;28;20461;-90
2023/02/24 14:59:45;;;;;;;17.67;5.18;;;;;;;;;;5071855;28;20748;-91
2023/02/24 15:02:17;;;;;;;15.27;4.80;;;;;;;;;;5065103;28;20366;-89
2023/02/24 15:04:45;;;;;;;19.90;6.72;;;;;;;;;;5066726;28;20372;-90
2023/02/24 15:07:18;;;;;;;17.25;5.30;;;;;;;;;;5071067;28;20465;-91
2023/02/24 15:09:46;;;;;;;24.93;8.13;;;;;;;;;;5033409;28;20377;-94
2023/02/24 15:12:12;;;;;;;21.63;6.45;;;;;;;;;;5032524;28;20377;-92
2023/02/24 15:14:39;;;;;;;19.40;6.50;;;;;;;;;;5056577;28;20823;-93
2023/02/24 15:17:14;;;;;;;14.07;6.00;;;;;;;;;;5053714;28;20453;-92